createdAt,value
2022-08-05T00:00:34.522Z,25.60
2022-08-05T00:03:15.727Z,25.60
2022-08-05T00:06:05.341Z,25.60
2022-08-05T00:08:35.610Z,25.60
2022-08-05T00:11:23.849Z,25.60
2022-08-05T00:13:55.220Z,25.60
2022-08-05T00:16:35.590Z,25.60
2022-08-05T00:19:04.460Z,25.50
2022-08-05T00:21:36.030Z,25.60
2022-08-05T00:24:10.270Z,25.60
2022-08-05T00:26:39.008Z,25.50
2022-08-05T00:29:14.551Z,25.50
2022-08-05T00:31:53.191Z,25.50
2022-08-05T00:34:54.816Z,25.50
2022-08-05T00:37:16.785Z,25.50
2022-08-05T00:39:58.732Z,25.50
2022-08-05T00:42:37.829Z,25.50
2022-08-05T00:45:08.819Z,25.50
2022-08-05T00:47:57.214Z,25.50
2022-08-05T00:50:30.013Z,25.50
2022-08-05T00:52:57.479Z,25.50
2022-08-05T00:55:42.249Z,25.50
2022-08-05T00:58:12.276Z,25.50
2022-08-05T01:00:42.231Z,25.50
2022-08-05T01:03:12.676Z,25.40
2022-08-05T01:05:54.803Z,25.50
2022-08-05T01:08:30.818Z,25.40
2022-08-05T01:11:24.227Z,25.40
2022-08-05T01:14:29.963Z,25.40
2022-08-05T01:17:25.833Z,25.40
2022-08-05T01:20:05.294Z,25.30
2022-08-05T01:22:53.728Z,25.30
2022-08-05T01:25:43.265Z,25.20
2022-08-05T01:28:42.636Z,25.20
2022-08-05T01:31:22.190Z,25.10
2022-08-05T01:34:09.046Z,25.10
2022-08-05T01:36:47.094Z,25.00
2022-08-05T01:39:47.597Z,25.00
2022-08-05T01:42:06.758Z,25.00
2022-08-05T01:44:37.840Z,25.00
2022-08-05T01:47:06.933Z,25.00
2022-08-05T01:50:01.976Z,24.90
2022-08-05T01:52:29.312Z,25.00
2022-08-05T01:55:02.005Z,24.90
2022-08-05T01:58:09.315Z,24.90
2022-08-05T02:00:30.603Z,24.90
2022-08-05T02:03:04.526Z,24.90
2022-08-05T02:05:36.003Z,24.90
2022-08-05T02:08:05.373Z,24.90
2022-08-05T02:10:39.225Z,24.90
2022-08-05T02:13:16.546Z,24.90
2022-08-05T02:15:47.872Z,24.90
2022-08-05T02:18:32.485Z,24.90
2022-08-05T02:21:25.415Z,24.90
2022-08-05T02:23:56.516Z,24.90
2022-08-05T02:26:29.682Z,24.80
2022-08-05T02:28:58.521Z,24.80
2022-08-05T02:31:34.799Z,24.80
2022-08-05T02:34:09.223Z,24.70
2022-08-05T02:36:43.893Z,24.70
2022-08-05T02:39:13.202Z,24.70
2022-08-05T02:42:00.797Z,24.70
2022-08-05T02:44:31.947Z,24.80
2022-08-05T02:47:01.094Z,24.70
2022-08-05T02:49:35.709Z,24.80
2022-08-05T02:52:25.779Z,24.70
2022-08-05T02:55:01.725Z,24.70
2022-08-05T02:58:11.120Z,24.70
2022-08-05T03:00:22.536Z,24.70
2022-08-05T03:02:54.524Z,24.70
2022-08-05T03:06:56.096Z,24.70
2022-08-05T03:08:11.614Z,24.70
2022-08-05T03:11:55.826Z,24.70
2022-08-05T03:13:51.413Z,24.70
2022-08-05T03:16:21.382Z,24.70
2022-08-05T03:18:49.019Z,24.60
2022-08-05T03:21:16.479Z,24.60
2022-08-05T03:23:45.725Z,24.60
2022-08-05T03:26:30.185Z,24.60
2022-08-05T03:28:59.965Z,24.60
2022-08-05T03:31:57.335Z,24.60
2022-08-05T03:34:16.808Z,24.60
2022-08-05T03:36:44.493Z,24.50
2022-08-05T03:39:19.802Z,24.50
2022-08-05T03:41:47.936Z,24.50
2022-08-05T03:44:20.284Z,24.60
2022-08-05T03:46:47.861Z,24.60
2022-08-05T03:49:16.432Z,24.60
2022-08-05T03:52:38.841Z,24.60
2022-08-05T03:55:53.956Z,24.50
2022-08-05T03:57:46.067Z,24.60
2022-08-05T04:00:16.647Z,24.70
2022-08-05T04:02:58.311Z,24.70
2022-08-05T04:05:33.538Z,24.70
2022-08-05T04:08:05.498Z,24.70
2022-08-05T04:10:38.109Z,24.70
2022-08-05T04:13:07.976Z,24.70
2022-08-05T04:15:36.113Z,24.70
2022-08-05T04:18:07.325Z,24.70
2022-08-05T04:20:37.696Z,24.70
2022-08-05T04:23:12.209Z,24.80
2022-08-05T04:26:00.264Z,24.90
2022-08-05T04:28:28.538Z,25.00
2022-08-05T04:31:00.782Z,25.10
2022-08-05T04:34:18.549Z,25.30
2022-08-05T04:36:46.272Z,25.40
2022-08-05T04:39:05.288Z,25.50
2022-08-05T04:41:37.770Z,25.70
2022-08-05T04:44:08.998Z,25.70
2022-08-05T04:46:38.483Z,25.80
2022-08-05T04:49:12.360Z,25.90
2022-08-05T04:52:00.294Z,26.00
2022-08-05T04:54:28.404Z,26.10
2022-08-05T04:56:58.980Z,26.20
2022-08-05T04:59:39.100Z,26.30
2022-08-05T05:02:37.196Z,26.50
2022-08-05T05:05:03.105Z,26.80
2022-08-05T05:07:35.263Z,27.20
2022-08-05T05:10:05.361Z,27.70
2022-08-05T05:12:33.924Z,28.20
2022-08-05T05:15:05.644Z,28.70
2022-08-05T05:17:57.128Z,29.10
2022-08-05T05:20:28.796Z,29.50
2022-08-05T05:22:58.286Z,29.90
2022-08-05T05:25:33.005Z,30.00
2022-08-05T05:28:09.393Z,30.20
2022-08-05T05:30:38.720Z,30.40
2022-08-05T05:33:16.077Z,30.90
2022-08-05T05:35:48.110Z,31.20
2022-08-05T05:38:22.835Z,31.70
2022-08-05T05:40:56.180Z,32.20
2022-08-05T05:43:54.607Z,32.80
2022-08-05T05:46:17.788Z,33.20
2022-08-05T05:48:48.526Z,33.80
2022-08-05T05:51:23.660Z,34.30
2022-08-05T05:53:57.321Z,34.70
2022-08-05T05:56:32.585Z,35.10
2022-08-05T05:59:06.793Z,35.40
2022-08-05T06:01:38.940Z,35.70
2022-08-05T06:04:12.657Z,35.80
2022-08-05T06:06:47.318Z,35.80
2022-08-05T06:09:24.740Z,35.90
2022-08-05T06:11:59.208Z,36.00
2022-08-05T06:14:29.951Z,36.10
2022-08-05T06:16:58.173Z,36.20
2022-08-05T06:19:34.059Z,36.20
2022-08-05T06:22:07.223Z,36.10
2022-08-05T06:24:35.895Z,36.10
2022-08-05T06:27:04.134Z,36.10
2022-08-05T06:29:49.278Z,36.00
2022-08-05T06:32:26.128Z,35.90
2022-08-05T06:35:06.041Z,35.60
2022-08-05T06:37:56.997Z,35.30
2022-08-05T06:40:27.939Z,34.80
2022-08-05T06:42:59.747Z,34.40
2022-08-05T06:46:02.846Z,34.00
2022-08-05T06:48:53.556Z,33.60
2022-08-05T06:51:03.825Z,33.20
2022-08-05T06:53:39.085Z,32.90
2022-08-05T06:56:07.440Z,32.60
2022-08-05T06:58:54.451Z,32.40
2022-08-05T07:01:22.726Z,32.30
2022-08-05T07:03:50.491Z,32.50
2022-08-05T07:06:19.283Z,32.80
2022-08-05T07:08:51.722Z,33.30
2022-08-05T07:11:22.553Z,33.80
2022-08-05T07:14:20.689Z,34.40
2022-08-05T07:17:56.351Z,35.00
2022-08-05T07:20:32.085Z,35.70
2022-08-05T07:22:38.481Z,36.40
2022-08-05T07:25:21.976Z,36.90
2022-08-05T07:27:58.558Z,37.10
2022-08-05T07:30:38.448Z,37.40
2022-08-05T07:33:17.082Z,37.50
2022-08-05T07:36:02.812Z,37.50
2022-08-05T07:38:43.217Z,37.60
2022-08-05T07:42:13.203Z,37.80
2022-08-05T07:44:19.145Z,37.90
2022-08-05T07:46:49.753Z,38.20
2022-08-05T07:49:18.882Z,38.50
2022-08-05T07:51:53.171Z,38.90
2022-08-05T07:54:31.597Z,39.30
2022-08-05T07:57:23.694Z,39.70
2022-08-05T07:59:52.399Z,40.10
2022-08-05T08:02:26.784Z,40.60
2022-08-05T08:04:59.289Z,41.10
2022-08-05T08:07:28.942Z,41.40
2022-08-05T08:10:07.076Z,41.70
2022-08-05T08:12:49.248Z,42.10
2022-08-05T08:15:17.527Z,42.30
2022-08-05T08:18:09.708Z,42.70
2022-08-05T08:20:59.933Z,43.00
2022-08-05T08:24:04.003Z,43.10
2022-08-05T08:26:17.396Z,43.30
2022-08-05T08:29:02.105Z,43.50
2022-08-05T08:31:42.386Z,43.60
2022-08-05T08:34:10.659Z,43.70
2022-08-05T08:36:47.617Z,43.60
2022-08-05T08:39:20.242Z,43.60
2022-08-05T08:41:51.255Z,43.60
2022-08-05T08:45:18.645Z,43.70
2022-08-05T08:47:47.801Z,43.80
2022-08-05T08:50:22.992Z,43.90
2022-08-05T08:52:53.100Z,44.00
2022-08-05T08:55:31.865Z,44.10
2022-08-05T08:58:10.113Z,44.30
2022-08-05T09:00:42.374Z,44.30
2022-08-05T09:03:15.913Z,44.30
2022-08-05T09:06:09.082Z,44.40
2022-08-05T09:08:35.719Z,44.30
2022-08-05T09:11:12.181Z,44.40
2022-08-05T09:14:09.535Z,44.20
2022-08-05T09:16:30.890Z,44.00
2022-08-05T09:18:59.462Z,43.80
2022-08-05T09:22:22.474Z,43.60
2022-08-05T09:24:16.022Z,43.30
2022-08-05T09:26:51.894Z,43.00
2022-08-05T09:29:19.945Z,42.70
2022-08-05T09:32:43.055Z,42.30
2022-08-05T09:34:58.430Z,41.80
2022-08-05T09:38:16.773Z,41.30
2022-08-05T09:40:39.207Z,41.00
2022-08-05T09:43:27.428Z,40.60
2022-08-05T09:46:28.412Z,40.40
2022-08-05T09:49:07.334Z,40.10
2022-08-05T09:51:49.462Z,39.90
2022-08-05T09:54:29.574Z,39.70
2022-08-05T09:57:01.261Z,39.60
2022-08-05T09:59:35.146Z,39.70
2022-08-05T10:02:05.333Z,39.70
2022-08-05T10:04:38.580Z,39.70
2022-08-05T10:07:20.897Z,39.50
2022-08-05T10:10:14.153Z,39.40
2022-08-05T10:12:51.246Z,39.30
2022-08-05T10:15:25.619Z,39.10
2022-08-05T10:18:13.319Z,38.90
2022-08-05T10:20:51.491Z,38.70
2022-08-05T10:23:55.351Z,38.60
2022-08-05T10:26:14.225Z,38.40
2022-08-05T10:28:45.013Z,38.30
2022-08-05T10:32:52.385Z,38.30
2022-08-05T10:34:03.648Z,38.20
2022-08-05T10:36:39.415Z,38.30
2022-08-05T10:39:59.018Z,38.20
2022-08-05T10:42:34.254Z,38.20
2022-08-05T10:45:21.006Z,38.20
2022-08-05T10:48:29.165Z,38.10
2022-08-05T10:51:03.398Z,38.10
2022-08-05T10:53:38.159Z,38.10
2022-08-05T10:56:25.224Z,38.10
2022-08-05T10:58:55.018Z,38.00
2022-08-05T11:01:55.454Z,38.10
2022-08-05T11:04:36.607Z,38.00
2022-08-05T11:07:06.955Z,38.00
2022-08-05T11:09:49.277Z,38.00
2022-08-05T11:12:41.288Z,38.00
2022-08-05T11:15:20.701Z,38.00
2022-08-05T11:17:59.518Z,38.00
2022-08-05T11:20:46.169Z,38.00
2022-08-05T11:24:03.995Z,38.00
2022-08-05T11:26:32.387Z,38.00
2022-08-05T11:29:12.903Z,38.10
2022-08-05T11:31:58.744Z,38.10
2022-08-05T11:34:39.785Z,38.20
2022-08-05T11:38:37.399Z,38.20
2022-08-05T11:39:55.396Z,38.20
2022-08-05T11:42:28.143Z,38.20
2022-08-05T11:45:03.545Z,38.20
2022-08-05T11:47:48.524Z,38.20
2022-08-05T11:50:18.108Z,38.20
2022-08-05T11:52:49.466Z,38.20
2022-08-05T11:55:18.596Z,38.20
2022-08-05T11:58:10.615Z,38.30
2022-08-05T12:00:38.372Z,38.30
2022-08-05T12:03:29.499Z,38.30
2022-08-05T12:06:02.107Z,38.30
2022-08-05T12:08:31.579Z,38.20
2022-08-05T12:11:05.842Z,38.20
2022-08-05T12:13:49.712Z,38.20
2022-08-05T12:16:19.454Z,38.10
2022-08-05T12:18:52.201Z,38.10
2022-08-05T12:21:31.930Z,38.00
2022-08-05T12:24:07.583Z,37.90
2022-08-05T12:26:38.773Z,37.90
2022-08-05T12:29:11.903Z,37.90
2022-08-05T12:31:58.009Z,37.90
2022-08-05T12:34:36.920Z,37.80
2022-08-05T12:37:17.385Z,37.80
2022-08-05T12:40:03.043Z,37.80
2022-08-05T12:42:32.292Z,37.60
2022-08-05T12:45:09.588Z,37.60
2022-08-05T12:47:43.516Z,37.70
2022-08-05T12:50:26.412Z,37.70
2022-08-05T12:53:00.117Z,37.60
2022-08-05T12:55:32.430Z,37.60
2022-08-05T12:58:49.514Z,37.60
2022-08-05T13:02:02.929Z,37.60
2022-08-05T13:03:41.800Z,37.60
2022-08-05T13:06:16.035Z,37.60
2022-08-05T13:08:50.810Z,37.50
2022-08-05T13:12:02.209Z,37.50
2022-08-05T13:14:36.274Z,37.50
2022-08-05T13:17:20.501Z,37.50
2022-08-05T13:20:05.060Z,37.50
2022-08-05T13:22:38.344Z,37.50
2022-08-05T13:25:19.362Z,37.50
2022-08-05T13:27:54.189Z,37.50
2022-08-05T13:30:34.106Z,37.60
2022-08-05T13:33:03.101Z,37.60
2022-08-05T13:35:43.143Z,37.60
2022-08-05T13:38:28.160Z,37.50
2022-08-05T13:41:03.964Z,37.50
2022-08-05T13:43:45.305Z,37.40
2022-08-05T13:46:30.684Z,37.40
2022-08-05T13:49:10.457Z,37.40
2022-08-05T13:51:46.220Z,37.40
2022-08-05T13:54:16.266Z,37.30
2022-08-05T13:56:50.922Z,37.30
2022-08-05T13:59:24.994Z,37.30
2022-08-05T14:01:57.939Z,37.30
2022-08-05T14:04:51.463Z,37.20
2022-08-05T14:08:00.645Z,37.20
2022-08-05T14:10:31.100Z,37.20
2022-08-05T14:12:59.747Z,37.20
2022-08-05T14:16:04.935Z,37.10
2022-08-05T14:18:18.175Z,37.10
2022-08-05T14:20:54.886Z,37.00
2022-08-05T14:23:25.573Z,37.00
2022-08-05T14:25:58.500Z,37.00
2022-08-05T14:28:30.774Z,36.90
2022-08-05T14:31:00.639Z,36.90
2022-08-05T14:33:56.487Z,36.90
2022-08-05T14:36:21.495Z,36.90
2022-08-05T14:38:50.799Z,36.90
2022-08-05T14:41:19.144Z,36.90
2022-08-05T14:43:57.799Z,36.90
2022-08-05T14:46:30.745Z,36.90
2022-08-05T14:49:06.467Z,36.90
2022-08-05T14:51:36.169Z,36.90
2022-08-05T14:54:27.121Z,36.80
2022-08-05T14:56:54.991Z,36.80
2022-08-05T14:59:23.022Z,36.80
2022-08-05T15:01:50.726Z,36.80
2022-08-05T15:04:20.719Z,36.80
2022-08-05T15:06:52.931Z,36.80
2022-08-05T15:09:51.737Z,36.70
2022-08-05T15:12:16.508Z,36.70
2022-08-05T15:14:50.117Z,36.70
2022-08-05T15:17:46.815Z,36.70
2022-08-05T15:20:18.483Z,36.60
2022-08-05T15:22:54.377Z,36.60
2022-08-05T15:25:50.955Z,36.50
2022-08-05T15:28:15.574Z,36.50
2022-08-05T15:30:46.245Z,36.50
2022-08-05T15:34:18.578Z,36.40
2022-08-05T15:36:06.418Z,36.40
2022-08-05T15:38:46.302Z,36.30
2022-08-05T15:41:21.347Z,36.20
2022-08-05T15:43:54.964Z,36.20
2022-08-05T15:46:24.358Z,36.10
2022-08-05T15:49:01.276Z,36.00
2022-08-05T15:52:12.857Z,36.00
2022-08-05T15:54:34.898Z,35.90
2022-08-05T15:57:07.638Z,35.90
2022-08-05T15:59:36.410Z,35.80
2022-08-05T16:02:09.656Z,35.80
2022-08-05T16:04:43.401Z,35.70
2022-08-05T16:07:12.070Z,35.60
2022-08-05T16:09:41.883Z,35.50
2022-08-05T16:12:10.135Z,35.50
2022-08-05T16:14:40.065Z,35.40
2022-08-05T16:17:07.459Z,35.30
2022-08-05T16:20:03.145Z,35.20
2022-08-05T16:22:27.885Z,35.10
2022-08-05T16:25:05.353Z,35.00
2022-08-05T16:28:00.387Z,34.90
2022-08-05T16:30:28.833Z,34.90
2022-08-05T16:32:58.103Z,34.80
2022-08-05T16:35:28.417Z,34.70
2022-08-05T16:38:15.047Z,34.60
2022-08-05T16:40:51.822Z,34.40
2022-08-05T16:43:24.717Z,34.30
2022-08-05T16:46:06.168Z,34.20
2022-08-05T16:48:37.872Z,34.10
2022-08-05T16:51:09.256Z,34.00
2022-08-05T16:54:06.074Z,33.90
2022-08-05T16:56:29.914Z,33.80
2022-08-05T16:58:58.869Z,33.70
2022-08-05T17:01:52.956Z,33.60
2022-08-05T17:04:16.128Z,33.50
2022-08-05T17:06:46.176Z,33.30
2022-08-05T17:09:21.565Z,33.30
2022-08-05T17:11:56.049Z,33.10
2022-08-05T17:14:36.862Z,33.00
2022-08-05T17:17:14.600Z,32.90
2022-08-05T17:19:45.219Z,32.80
2022-08-05T17:22:24.766Z,32.70
2022-08-05T17:24:57.771Z,32.60
2022-08-05T17:27:34.280Z,32.50
2022-08-05T17:30:12.020Z,32.50
2022-08-05T17:32:46.401Z,32.40
2022-08-05T17:35:15.473Z,32.30
2022-08-05T17:37:45.084Z,32.30
2022-08-05T17:40:15.835Z,32.20
2022-08-05T17:42:50.987Z,32.20
2022-08-05T17:45:22.202Z,32.20
2022-08-05T17:47:56.014Z,32.10
2022-08-05T17:50:30.569Z,32.10
2022-08-05T17:53:00.733Z,32.00
2022-08-05T17:55:34.197Z,32.00
2022-08-05T17:58:11.034Z,32.00
2022-08-05T18:00:47.732Z,31.90
2022-08-05T18:06:11.853Z,31.90
2022-08-05T18:08:44.884Z,31.80
2022-08-05T18:11:24.131Z,31.70
2022-08-05T18:13:57.224Z,31.70
2022-08-05T18:16:27.456Z,31.60
2022-08-05T18:18:55.263Z,31.60
2022-08-05T18:21:26.015Z,31.50
2022-08-05T18:23:54.467Z,31.50
2022-08-05T18:26:29.593Z,31.50
2022-08-05T18:29:00.272Z,31.40
2022-08-05T18:31:32.993Z,31.30
2022-08-05T18:34:05.799Z,31.30
2022-08-05T18:36:35.306Z,31.30
2022-08-05T18:39:06.541Z,31.20
2022-08-05T18:41:53.445Z,31.10
2022-08-05T18:44:35.051Z,31.10
2022-08-05T18:47:12.776Z,31.00
2022-08-05T18:50:00.223Z,31.00
2022-08-05T18:52:35.715Z,30.90
2022-08-05T18:55:06.278Z,30.90
2022-08-05T18:57:43.635Z,30.90
2022-08-05T19:00:27.073Z,30.90
2022-08-05T19:02:57.416Z,30.90
2022-08-05T19:06:12.348Z,30.70
2022-08-05T19:08:15.334Z,30.70
2022-08-05T19:10:46.200Z,30.60
2022-08-05T19:13:15.754Z,30.60
2022-08-05T19:15:59.020Z,30.40
2022-08-05T19:18:28.762Z,30.30
2022-08-05T19:20:56.596Z,30.10
2022-08-05T19:24:05.166Z,30.00
2022-08-05T19:26:13.879Z,29.80
2022-08-05T19:28:43.434Z,29.50
2022-08-05T19:31:12.906Z,29.40
2022-08-05T19:33:48.619Z,29.20
2022-08-05T19:36:25.385Z,29.00
2022-08-05T19:38:55.238Z,28.70
2022-08-05T19:42:05.447Z,28.50
2022-08-05T19:44:19.000Z,28.30
2022-08-05T19:46:47.280Z,28.10
2022-08-05T19:49:18.247Z,27.90
2022-08-05T19:52:04.325Z,27.60
2022-08-05T19:54:35.249Z,27.40
2022-08-05T19:57:08.593Z,27.20
2022-08-05T19:59:59.288Z,27.00
2022-08-05T20:02:28.207Z,26.70
2022-08-05T20:04:58.534Z,26.60
2022-08-05T20:07:46.617Z,26.40
2022-08-05T20:10:19.139Z,26.20
2022-08-05T20:12:49.258Z,26.00
2022-08-05T20:15:23.254Z,25.90
2022-08-05T20:18:10.723Z,25.90
2022-08-05T20:20:56.202Z,25.70
2022-08-05T20:23:40.408Z,25.60
2022-08-05T20:26:16.547Z,25.50
2022-08-05T20:28:50.309Z,25.40
2022-08-05T20:31:22.987Z,25.30
2022-08-05T20:34:04.932Z,25.20
2022-08-05T20:36:32.768Z,25.10
2022-08-05T20:39:00.255Z,25.00
2022-08-05T20:41:43.284Z,24.90
2022-08-05T20:44:19.123Z,24.80
2022-08-05T20:46:59.063Z,24.80
2022-08-05T20:49:27.072Z,24.70
2022-08-05T20:51:57.253Z,24.60
2022-08-05T20:54:55.193Z,24.60
2022-08-05T20:57:24.748Z,24.60
2022-08-05T21:00:21.297Z,24.50
2022-08-05T21:02:57.809Z,24.50
2022-08-05T21:05:25.613Z,24.40
2022-08-05T21:08:06.191Z,24.40
2022-08-05T21:10:34.190Z,24.30
2022-08-05T21:13:10.211Z,24.30
2022-08-05T21:15:42.101Z,24.20
2022-08-05T21:18:13.584Z,24.10
2022-08-05T21:20:41.423Z,24.00
2022-08-05T21:23:12.773Z,23.90
2022-08-05T21:25:44.580Z,23.80
2022-08-05T21:28:12.139Z,23.60
2022-08-05T21:30:40.531Z,23.60
2022-08-05T21:33:22.371Z,23.50
2022-08-05T21:35:58.506Z,23.40
2022-08-05T21:38:27.528Z,23.30
2022-08-05T21:40:55.151Z,23.20
2022-08-05T21:43:24.608Z,23.10
2022-08-05T21:45:57.597Z,23.10
2022-08-05T21:48:28.852Z,23.00
2022-08-05T21:50:57.363Z,23.00
2022-08-05T21:53:27.561Z,22.90
2022-08-05T21:56:06.370Z,22.80
2022-08-05T21:58:48.259Z,22.80
2022-08-05T22:01:26.295Z,22.70
2022-08-05T22:03:54.116Z,22.60
2022-08-05T22:06:34.760Z,22.50
2022-08-05T22:09:13.627Z,22.40
2022-08-05T22:11:46.758Z,22.30
2022-08-05T22:14:34.967Z,22.30
2022-08-05T22:17:06.902Z,22.20
2022-08-05T22:20:00.977Z,22.20
2022-08-05T22:22:27.640Z,22.10
2022-08-05T22:25:27.572Z,22.10
2022-08-05T22:28:10.622Z,22.00
2022-08-05T22:30:56.154Z,21.90
2022-08-05T22:33:56.726Z,21.90
2022-08-05T22:36:14.196Z,21.80
2022-08-05T22:38:42.745Z,21.80
2022-08-05T22:41:10.763Z,21.80
2022-08-05T22:43:40.580Z,21.70
2022-08-05T22:46:13.756Z,21.60
2022-08-05T22:48:51.160Z,21.60
2022-08-05T22:51:22.858Z,21.60
2022-08-05T22:53:57.085Z,21.50
2022-08-05T22:56:30.484Z,21.50
2022-08-05T22:59:03.273Z,21.40
2022-08-05T23:02:04.480Z,21.40
2022-08-05T23:04:34.120Z,21.30
2022-08-05T23:07:02.334Z,21.30
2022-08-05T23:09:57.531Z,21.20
2022-08-05T23:12:20.220Z,21.20
2022-08-05T23:14:51.592Z,21.10
2022-08-05T23:17:34.870Z,21.00
2022-08-05T23:20:16.368Z,21.00
2022-08-05T23:22:47.855Z,20.90
2022-08-05T23:25:51.132Z,20.90
2022-08-05T23:28:07.772Z,20.80
2022-08-05T23:30:39.686Z,20.80
2022-08-05T23:33:16.155Z,20.80
2022-08-05T23:35:50.824Z,20.70
2022-08-05T23:38:18.626Z,20.70
2022-08-05T23:40:49.933Z,20.70
2022-08-05T23:43:24.811Z,20.70
2022-08-05T23:46:20.540Z,20.70
2022-08-05T23:48:59.146Z,20.60
2022-08-05T23:51:54.072Z,20.50
2022-08-05T23:54:30.229Z,20.40
2022-08-05T23:57:04.796Z,20.20
